sensor_id;sensor_type;location;lat;lon;timestamp;temperature;humidity
12833;DHT22;6483;51.310;4.462;2022-07-04T00:00:08;11.60;99.90
12833;DHT22;6483;51.310;4.462;2022-07-04T00:02:38;11.60;99.90
12833;DHT22;6483;51.310;4.462;2022-07-04T00:05:05;11.60;99.90
12833;DHT22;6483;51.310;4.462;2022-07-04T00:07:36;11.60;99.90
12833;DHT22;6483;51.310;4.462;2022-07-04T00:10:03;11.60;99.90
12833;DHT22;6483;51.310;4.462;2022-07-04T00:12:36;11.50;99.90
12833;DHT22;6483;51.310;4.462;2022-07-04T00:15:03;11.50;99.90
12833;DHT22;6483;51.310;4.462;2022-07-04T00:17:29;11.40;99.90
12833;DHT22;6483;51.310;4.462;2022-07-04T00:19:59;11.40;99.90
12833;DHT22;6483;51.310;4.462;2022-07-04T00:22:28;11.40;99.90
12833;DHT22;6483;51.310;4.462;2022-07-04T00:24:53;11.30;99.90
12833;DHT22;6483;51.310;4.462;2022-07-04T00:27:19;11.30;99.90
12833;DHT22;6483;51.310;4.462;2022-07-04T00:29:47;11.30;99.90
12833;DHT22;6483;51.310;4.462;2022-07-04T00:32:13;11.30;99.90
12833;DHT22;6483;51.310;4.462;2022-07-04T00:34:39;11.40;99.90
12833;DHT22;6483;51.310;4.462;2022-07-04T00:37:04;11.30;99.90
12833;DHT22;6483;51.310;4.462;2022-07-04T00:39:31;11.20;99.90
12833;DHT22;6483;51.310;4.462;2022-07-04T00:41:58;11.20;99.90
12833;DHT22;6483;51.310;4.462;2022-07-04T00:44:27;11.10;99.90
12833;DHT22;6483;51.310;4.462;2022-07-04T00:46:55;11.10;99.90
12833;DHT22;6483;51.310;4.462;2022-07-04T00:49:21;11.10;99.90
12833;DHT22;6483;51.310;4.462;2022-07-04T00:51:53;11.10;99.90
12833;DHT22;6483;51.310;4.462;2022-07-04T00:54:19;11.10;99.90
12833;DHT22;6483;51.310;4.462;2022-07-04T00:56:50;11.10;99.90
12833;DHT22;6483;51.310;4.462;2022-07-04T00:59:19;11.00;99.90
12833;DHT22;6483;51.310;4.462;2022-07-04T01:01:44;11.00;99.90
12833;DHT22;6483;51.310;4.462;2022-07-04T01:04:13;11.00;99.90
12833;DHT22;6483;51.310;4.462;2022-07-04T01:06:39;11.00;99.90
12833;DHT22;6483;51.310;4.462;2022-07-04T01:09:05;11.00;99.90
12833;DHT22;6483;51.310;4.462;2022-07-04T01:11:34;11.00;99.90
12833;DHT22;6483;51.310;4.462;2022-07-04T01:13:59;11.10;99.90
12833;DHT22;6483;51.310;4.462;2022-07-04T01:16:26;11.20;99.90
12833;DHT22;6483;51.310;4.462;2022-07-04T01:18:54;11.20;99.90
12833;DHT22;6483;51.310;4.462;2022-07-04T01:21:21;11.20;99.90
12833;DHT22;6483;51.310;4.462;2022-07-04T01:23:47;11.20;99.90
12833;DHT22;6483;51.310;4.462;2022-07-04T01:26:13;11.00;99.90
12833;DHT22;6483;51.310;4.462;2022-07-04T01:28:39;10.90;99.90
12833;DHT22;6483;51.310;4.462;2022-07-04T01:31:05;10.90;99.90
12833;DHT22;6483;51.310;4.462;2022-07-04T01:33:35;10.80;99.90
12833;DHT22;6483;51.310;4.462;2022-07-04T01:36:03;10.80;99.90
12833;DHT22;6483;51.310;4.462;2022-07-04T01:38:29;10.70;99.90
12833;DHT22;6483;51.310;4.462;2022-07-04T01:40:55;10.70;99.90
12833;DHT22;6483;51.310;4.462;2022-07-04T01:43:22;10.70;99.90
12833;DHT22;6483;51.310;4.462;2022-07-04T01:45:48;10.70;99.90
12833;DHT22;6483;51.310;4.462;2022-07-04T01:48:15;10.70;99.90
12833;DHT22;6483;51.310;4.462;2022-07-04T01:50:41;10.60;99.90
12833;DHT22;6483;51.310;4.462;2022-07-04T01:53:07;10.60;99.90
12833;DHT22;6483;51.310;4.462;2022-07-04T01:55:36;10.60;99.90
12833;DHT22;6483;51.310;4.462;2022-07-04T01:58:02;10.50;99.90
12833;DHT22;6483;51.310;4.462;2022-07-04T02:00:28;10.60;99.90
12833;DHT22;6483;51.310;4.462;2022-07-04T02:03:12;10.50;99.90
12833;DHT22;6483;51.310;4.462;2022-07-04T02:05:39;10.60;99.90
12833;DHT22;6483;51.310;4.462;2022-07-04T02:08:05;10.60;99.90
12833;DHT22;6483;51.310;4.462;2022-07-04T02:10:32;10.60;99.90
12833;DHT22;6483;51.310;4.462;2022-07-04T02:13:01;10.50;99.90
12833;DHT22;6483;51.310;4.462;2022-07-04T02:15:34;10.50;99.90
12833;DHT22;6483;51.310;4.462;2022-07-04T02:18:01;10.40;99.90
12833;DHT22;6483;51.310;4.462;2022-07-04T02:20:30;10.40;99.90
12833;DHT22;6483;51.310;4.462;2022-07-04T02:22:56;10.40;99.90
12833;DHT22;6483;51.310;4.462;2022-07-04T02:25:22;10.40;99.90
12833;DHT22;6483;51.310;4.462;2022-07-04T02:27:47;10.40;99.90
12833;DHT22;6483;51.310;4.462;2022-07-04T02:30:16;10.30;99.90
12833;DHT22;6483;51.310;4.462;2022-07-04T02:32:41;10.30;99.90
12833;DHT22;6483;51.310;4.462;2022-07-04T02:35:09;10.30;99.90
12833;DHT22;6483;51.310;4.462;2022-07-04T02:37:35;10.20;99.90
12833;DHT22;6483;51.310;4.462;2022-07-04T02:40:02;10.20;99.90
12833;DHT22;6483;51.310;4.462;2022-07-04T02:42:32;10.30;99.90
12833;DHT22;6483;51.310;4.462;2022-07-04T02:44:58;10.20;99.90
12833;DHT22;6483;51.310;4.462;2022-07-04T02:47:23;10.30;99.90
12833;DHT22;6483;51.310;4.462;2022-07-04T02:49:55;10.30;99.90
12833;DHT22;6483;51.310;4.462;2022-07-04T02:52:24;10.20;99.90
12833;DHT22;6483;51.310;4.462;2022-07-04T02:54:53;10.20;99.90
12833;DHT22;6483;51.310;4.462;2022-07-04T02:57:19;10.20;99.90
12833;DHT22;6483;51.310;4.462;2022-07-04T02:59:45;10.20;99.90
12833;DHT22;6483;51.310;4.462;2022-07-04T03:02:11;10.20;99.90
12833;DHT22;6483;51.310;4.462;2022-07-04T03:04:36;10.20;99.90
12833;DHT22;6483;51.310;4.462;2022-07-04T03:07:06;10.20;99.90
12833;DHT22;6483;51.310;4.462;2022-07-04T03:09:34;10.20;99.90
12833;DHT22;6483;51.310;4.462;2022-07-04T03:12:03;10.20;99.90
12833;DHT22;6483;51.310;4.462;2022-07-04T03:14:29;10.20;99.90
12833;DHT22;6483;51.310;4.462;2022-07-04T03:16:54;10.20;99.90
12833;DHT22;6483;51.310;4.462;2022-07-04T03:19:23;10.20;99.90
12833;DHT22;6483;51.310;4.462;2022-07-04T03:21:52;10.20;99.90
12833;DHT22;6483;51.310;4.462;2022-07-04T03:24:18;10.20;99.90
12833;DHT22;6483;51.310;4.462;2022-07-04T03:26:43;10.20;99.90
12833;DHT22;6483;51.310;4.462;2022-07-04T03:29:09;10.20;99.90
12833;DHT22;6483;51.310;4.462;2022-07-04T03:31:34;10.30;99.90
12833;DHT22;6483;51.310;4.462;2022-07-04T03:34:03;10.40;99.90
12833;DHT22;6483;51.310;4.462;2022-07-04T03:36:29;10.50;99.90
12833;DHT22;6483;51.310;4.462;2022-07-04T03:38:54;10.40;99.90
12833;DHT22;6483;51.310;4.462;2022-07-04T03:41:20;10.70;99.90
12833;DHT22;6483;51.310;4.462;2022-07-04T03:43:46;10.40;99.90
12833;DHT22;6483;51.310;4.462;2022-07-04T03:46:30;10.40;99.90
12833;DHT22;6483;51.310;4.462;2022-07-04T03:48:58;10.40;99.90
12833;DHT22;6483;51.310;4.462;2022-07-04T03:51:27;10.40;99.90
12833;DHT22;6483;51.310;4.462;2022-07-04T03:53:53;10.30;99.90
12833;DHT22;6483;51.310;4.462;2022-07-04T03:56:19;10.30;99.90
12833;DHT22;6483;51.310;4.462;2022-07-04T03:58:44;10.40;99.90
12833;DHT22;6483;51.310;4.462;2022-07-04T04:01:15;10.40;99.90
12833;DHT22;6483;51.310;4.462;2022-07-04T04:03:41;10.40;99.90
12833;DHT22;6483;51.310;4.462;2022-07-04T04:06:25;10.50;99.90
12833;DHT22;6483;51.310;4.462;2022-07-04T04:08:51;10.50;99.90
12833;DHT22;6483;51.310;4.462;2022-07-04T04:11:16;10.50;99.90
12833;DHT22;6483;51.310;4.462;2022-07-04T04:13:42;10.50;99.90
12833;DHT22;6483;51.310;4.462;2022-07-04T04:16:11;10.50;99.90
12833;DHT22;6483;51.310;4.462;2022-07-04T04:18:37;10.60;99.90
12833;DHT22;6483;51.310;4.462;2022-07-04T04:21:03;10.70;99.90
12833;DHT22;6483;51.310;4.462;2022-07-04T04:23:29;10.70;99.90
12833;DHT22;6483;51.310;4.462;2022-07-04T04:25:54;10.80;99.90
12833;DHT22;6483;51.310;4.462;2022-07-04T04:28:23;10.80;99.90
12833;DHT22;6483;51.310;4.462;2022-07-04T04:30:49;10.90;99.90
12833;DHT22;6483;51.310;4.462;2022-07-04T04:33:15;11.30;99.90
12833;DHT22;6483;51.310;4.462;2022-07-04T04:35:41;11.20;99.90
12833;DHT22;6483;51.310;4.462;2022-07-04T04:38:07;11.20;99.90
12833;DHT22;6483;51.310;4.462;2022-07-04T04:40:32;11.30;99.90
12833;DHT22;6483;51.310;4.462;2022-07-04T04:42:58;11.40;99.90
12833;DHT22;6483;51.310;4.462;2022-07-04T04:45:27;11.40;99.90
12833;DHT22;6483;51.310;4.462;2022-07-04T04:47:55;11.50;99.90
12833;DHT22;6483;51.310;4.462;2022-07-04T04:50:21;11.50;99.90
12833;DHT22;6483;51.310;4.462;2022-07-04T04:52:47;11.60;99.90
12833;DHT22;6483;51.310;4.462;2022-07-04T04:55:12;11.70;99.90
12833;DHT22;6483;51.310;4.462;2022-07-04T04:57:39;11.80;99.90
12833;DHT22;6483;51.310;4.462;2022-07-04T05:00:05;11.90;99.90
12833;DHT22;6483;51.310;4.462;2022-07-04T05:02:34;12.10;99.90
12833;DHT22;6483;51.310;4.462;2022-07-04T05:05:03;12.40;99.90
12833;DHT22;6483;51.310;4.462;2022-07-04T05:07:28;12.70;99.90
12833;DHT22;6483;51.310;4.462;2022-07-04T05:09:54;13.00;99.90
12833;DHT22;6483;51.310;4.462;2022-07-04T05:12:28;13.20;99.90
12833;DHT22;6483;51.310;4.462;2022-07-04T05:14:54;13.30;99.90
12833;DHT22;6483;51.310;4.462;2022-07-04T05:17:20;13.40;99.90
12833;DHT22;6483;51.310;4.462;2022-07-04T05:19:47;13.60;99.90
12833;DHT22;6483;51.310;4.462;2022-07-04T05:22:14;13.90;99.90
12833;DHT22;6483;51.310;4.462;2022-07-04T05:24:40;14.10;99.90
12833;DHT22;6483;51.310;4.462;2022-07-04T05:27:08;14.30;99.90
12833;DHT22;6483;51.310;4.462;2022-07-04T05:29:34;14.40;99.90
12833;DHT22;6483;51.310;4.462;2022-07-04T05:32:00;14.50;99.90
12833;DHT22;6483;51.310;4.462;2022-07-04T05:34:25;14.70;99.90
12833;DHT22;6483;51.310;4.462;2022-07-04T05:36:54;14.90;99.90
12833;DHT22;6483;51.310;4.462;2022-07-04T05:39:23;15.10;99.90
12833;DHT22;6483;51.310;4.462;2022-07-04T05:41:49;15.20;99.90
12833;DHT22;6483;51.310;4.462;2022-07-04T05:44:15;15.40;99.90
12833;DHT22;6483;51.310;4.462;2022-07-04T05:46:40;15.60;99.90
12833;DHT22;6483;51.310;4.462;2022-07-04T05:49:09;15.50;99.90
12833;DHT22;6483;51.310;4.462;2022-07-04T05:51:35;15.40;99.90
12833;DHT22;6483;51.310;4.462;2022-07-04T05:54:00;15.40;99.90
12833;DHT22;6483;51.310;4.462;2022-07-04T05:56:27;15.30;99.90
12833;DHT22;6483;51.310;4.462;2022-07-04T05:58:53;15.30;99.90
12833;DHT22;6483;51.310;4.462;2022-07-04T06:01:19;15.30;99.90
12833;DHT22;6483;51.310;4.462;2022-07-04T06:04:03;15.40;99.90
12833;DHT22;6483;51.310;4.462;2022-07-04T06:06:29;15.50;99.90
12833;DHT22;6483;51.310;4.462;2022-07-04T06:08:58;15.60;99.90
12833;DHT22;6483;51.310;4.462;2022-07-04T06:11:27;15.70;99.90
12833;DHT22;6483;51.310;4.462;2022-07-04T06:13:53;15.80;99.90
12833;DHT22;6483;51.310;4.462;2022-07-04T06:16:18;16.10;99.90
12833;DHT22;6483;51.310;4.462;2022-07-04T06:18:46;16.20;99.90
12833;DHT22;6483;51.310;4.462;2022-07-04T06:21:14;16.50;99.90
12833;DHT22;6483;51.310;4.462;2022-07-04T06:23:40;16.80;99.90
12833;DHT22;6483;51.310;4.462;2022-07-04T06:26:07;17.00;99.90
12833;DHT22;6483;51.310;4.462;2022-07-04T06:28:33;17.10;99.90
12833;DHT22;6483;51.310;4.462;2022-07-04T06:30:58;17.10;99.90
12833;DHT22;6483;51.310;4.462;2022-07-04T06:33:25;17.20;99.90
12833;DHT22;6483;51.310;4.462;2022-07-04T06:35:53;17.30;99.90
12833;DHT22;6483;51.310;4.462;2022-07-04T06:38:44;17.30;99.90
12833;DHT22;6483;51.310;4.462;2022-07-04T06:41:10;17.10;99.90
12833;DHT22;6483;51.310;4.462;2022-07-04T06:43:36;17.00;99.90
12833;DHT22;6483;51.310;4.462;2022-07-04T06:46:02;16.90;99.90
12833;DHT22;6483;51.310;4.462;2022-07-04T06:48:30;17.00;99.90
12833;DHT22;6483;51.310;4.462;2022-07-04T06:50:57;17.00;99.90
12833;DHT22;6483;51.310;4.462;2022-07-04T06:53:22;17.00;99.90
12833;DHT22;6483;51.310;4.462;2022-07-04T06:55:48;17.00;99.90
12833;DHT22;6483;51.310;4.462;2022-07-04T06:58:17;17.00;99.90
12833;DHT22;6483;51.310;4.462;2022-07-04T07:00:42;17.00;99.90
12833;DHT22;6483;51.310;4.462;2022-07-04T07:03:09;17.00;99.90
12833;DHT22;6483;51.310;4.462;2022-07-04T07:05:35;17.10;99.90
12833;DHT22;6483;51.310;4.462;2022-07-04T07:08:03;17.20;99.90
12833;DHT22;6483;51.310;4.462;2022-07-04T07:10:29;17.30;99.90
12833;DHT22;6483;51.310;4.462;2022-07-04T07:12:58;17.40;99.90
12833;DHT22;6483;51.310;4.462;2022-07-04T07:15:23;17.50;99.90
12833;DHT22;6483;51.310;4.462;2022-07-04T07:17:49;17.60;99.90
12833;DHT22;6483;51.310;4.462;2022-07-04T07:20:18;17.80;99.90
12833;DHT22;6483;51.310;4.462;2022-07-04T07:22:43;18.00;99.90
12833;DHT22;6483;51.310;4.462;2022-07-04T07:25:16;18.00;99.90
12833;DHT22;6483;51.310;4.462;2022-07-04T07:27:45;17.80;99.90
12833;DHT22;6483;51.310;4.462;2022-07-04T07:30:11;17.70;99.90
12833;DHT22;6483;51.310;4.462;2022-07-04T07:32:36;17.80;99.90
12833;DHT22;6483;51.310;4.462;2022-07-04T07:35:08;17.90;99.90
12833;DHT22;6483;51.310;4.462;2022-07-04T07:37:34;17.90;99.90
12833;DHT22;6483;51.310;4.462;2022-07-04T07:40:01;18.10;99.90
12833;DHT22;6483;51.310;4.462;2022-07-04T07:42:27;18.10;99.90
12833;DHT22;6483;51.310;4.462;2022-07-04T07:44:52;18.10;99.90
12833;DHT22;6483;51.310;4.462;2022-07-04T07:47:18;18.30;99.90
12833;DHT22;6483;51.310;4.462;2022-07-04T07:49:47;18.40;99.90
12833;DHT22;6483;51.310;4.462;2022-07-04T07:52:13;18.60;99.90
12833;DHT22;6483;51.310;4.462;2022-07-04T07:54:40;18.70;99.90
12833;DHT22;6483;51.310;4.462;2022-07-04T07:57:09;18.90;99.90
12833;DHT22;6483;51.310;4.462;2022-07-04T07:59:38;18.90;99.90
12833;DHT22;6483;51.310;4.462;2022-07-04T08:02:06;18.80;99.90
12833;DHT22;6483;51.310;4.462;2022-07-04T08:04:32;19.10;99.90
12833;DHT22;6483;51.310;4.462;2022-07-04T08:07:06;19.70;99.90
12833;DHT22;6483;51.310;4.462;2022-07-04T08:09:33;19.60;99.90
12833;DHT22;6483;51.310;4.462;2022-07-04T08:11:59;19.70;99.90
12833;DHT22;6483;51.310;4.462;2022-07-04T08:14:26;19.80;99.90
12833;DHT22;6483;51.310;4.462;2022-07-04T08:16:56;20.10;99.90
12833;DHT22;6483;51.310;4.462;2022-07-04T08:19:22;20.20;99.90
12833;DHT22;6483;51.310;4.462;2022-07-04T08:21:47;20.50;99.90
12833;DHT22;6483;51.310;4.462;2022-07-04T08:24:14;21.40;99.90
12833;DHT22;6483;51.310;4.462;2022-07-04T08:26:42;21.70;99.90
12833;DHT22;6483;51.310;4.462;2022-07-04T08:29:08;21.60;99.90
12833;DHT22;6483;51.310;4.462;2022-07-04T08:31:34;21.80;99.90
12833;DHT22;6483;51.310;4.462;2022-07-04T08:34:03;22.60;99.90
12833;DHT22;6483;51.310;4.462;2022-07-04T08:36:28;22.50;99.90
12833;DHT22;6483;51.310;4.462;2022-07-04T08:38:54;22.60;99.90
12833;DHT22;6483;51.310;4.462;2022-07-04T08:41:20;22.80;99.90
12833;DHT22;6483;51.310;4.462;2022-07-04T08:43:47;22.30;99.90
12833;DHT22;6483;51.310;4.462;2022-07-04T08:46:15;21.90;99.90
12833;DHT22;6483;51.310;4.462;2022-07-04T08:48:42;22.10;99.90
12833;DHT22;6483;51.310;4.462;2022-07-04T08:54:05;23.80;99.90
12833;DHT22;6483;51.310;4.462;2022-07-04T08:56:53;23.60;99.90
12833;DHT22;6483;51.310;4.462;2022-07-04T08:59:39;23.60;99.90
12833;DHT22;6483;51.310;4.462;2022-07-04T09:02:05;23.10;99.90
12833;DHT22;6483;51.310;4.462;2022-07-04T09:04:35;22.50;99.90
12833;DHT22;6483;51.310;4.462;2022-07-04T09:07:01;22.70;99.90
12833;DHT22;6483;51.310;4.462;2022-07-04T09:09:28;23.00;99.90
12833;DHT22;6483;51.310;4.462;2022-07-04T09:11:58;23.70;99.90
12833;DHT22;6483;51.310;4.462;2022-07-04T09:14:23;23.50;99.90
12833;DHT22;6483;51.310;4.462;2022-07-04T09:16:52;23.20;99.90
12833;DHT22;6483;51.310;4.462;2022-07-04T09:19:21;22.90;99.90
12833;DHT22;6483;51.310;4.462;2022-07-04T09:21:50;22.10;99.90
12833;DHT22;6483;51.310;4.462;2022-07-04T09:24:16;22.40;99.90
12833;DHT22;6483;51.310;4.462;2022-07-04T09:27:07;22.30;99.90
12833;DHT22;6483;51.310;4.462;2022-07-04T09:29:52;22.40;99.90
12833;DHT22;6483;51.310;4.462;2022-07-04T09:35:28;24.20;99.90
12833;DHT22;6483;51.310;4.462;2022-07-04T09:37:59;24.40;99.90
12833;DHT22;6483;51.310;4.462;2022-07-04T09:40:35;24.20;99.90
12833;DHT22;6483;51.310;4.462;2022-07-04T09:43:29;24.30;99.90
12833;DHT22;6483;51.310;4.462;2022-07-04T09:45:55;25.00;99.90
12833;DHT22;6483;51.310;4.462;2022-07-04T09:48:23;25.10;99.90
12833;DHT22;6483;51.310;4.462;2022-07-04T09:50:49;25.40;99.90
12833;DHT22;6483;51.310;4.462;2022-07-04T09:53:15;25.50;99.90
12833;DHT22;6483;51.310;4.462;2022-07-04T09:55:41;25.20;99.90
12833;DHT22;6483;51.310;4.462;2022-07-04T09:58:15;25.50;99.90
12833;DHT22;6483;51.310;4.462;2022-07-04T10:00:46;25.30;99.90
12833;DHT22;6483;51.310;4.462;2022-07-04T10:08:34;26.70;99.90
12833;DHT22;6483;51.310;4.462;2022-07-04T10:11:01;27.40;99.90
12833;DHT22;6483;51.310;4.462;2022-07-04T10:13:28;27.40;99.90
12833;DHT22;6483;51.310;4.462;2022-07-04T10:15:53;27.20;99.90
12833;DHT22;6483;51.310;4.462;2022-07-04T10:18:23;27.10;99.20
12833;DHT22;6483;51.310;4.462;2022-07-04T10:20:53;27.50;99.00
12833;DHT22;6483;51.310;4.462;2022-07-04T10:23:20;27.40;98.90
12833;DHT22;6483;51.310;4.462;2022-07-04T10:25:49;26.90;99.40
12833;DHT22;6483;51.310;4.462;2022-07-04T10:28:43;25.40;99.90
12833;DHT22;6483;51.310;4.462;2022-07-04T10:31:09;24.20;99.90
12833;DHT22;6483;51.310;4.462;2022-07-04T10:33:39;25.40;99.90
12833;DHT22;6483;51.310;4.462;2022-07-04T10:36:17;26.30;98.40
12833;DHT22;6483;51.310;4.462;2022-07-04T10:38:56;25.70;98.40
12833;DHT22;6483;51.310;4.462;2022-07-04T10:41:23;25.90;99.30
12833;DHT22;6483;51.310;4.462;2022-07-04T10:44:03;25.60;99.40
12833;DHT22;6483;51.310;4.462;2022-07-04T10:46:45;25.20;99.60
12833;DHT22;6483;51.310;4.462;2022-07-04T10:49:31;24.40;99.90
12833;DHT22;6483;51.310;4.462;2022-07-04T10:52:11;23.90;99.90
12833;DHT22;6483;51.310;4.462;2022-07-04T10:54:39;25.10;99.90
12833;DHT22;6483;51.310;4.462;2022-07-04T10:57:14;24.70;99.90
12833;DHT22;6483;51.310;4.462;2022-07-04T10:59:43;24.40;99.90
12833;DHT22;6483;51.310;4.462;2022-07-04T11:05:07;23.60;99.90
12833;DHT22;6483;51.310;4.462;2022-07-04T11:18:04;23.10;99.90
12833;DHT22;6483;51.310;4.462;2022-07-04T11:20:35;23.10;99.90
12833;DHT22;6483;51.310;4.462;2022-07-04T11:23:09;24.20;99.90
12833;DHT22;6483;51.310;4.462;2022-07-04T11:25:35;24.90;99.90
12833;DHT22;6483;51.310;4.462;2022-07-04T11:28:20;24.90;99.90
12833;DHT22;6483;51.310;4.462;2022-07-04T11:30:54;24.80;99.90
12833;DHT22;6483;51.310;4.462;2022-07-04T11:33:22;24.40;99.90
12833;DHT22;6483;51.310;4.462;2022-07-04T11:36:05;24.20;99.90
12833;DHT22;6483;51.310;4.462;2022-07-04T11:38:57;25.30;99.90
12833;DHT22;6483;51.310;4.462;2022-07-04T11:41:32;27.20;99.90
12833;DHT22;6483;51.310;4.462;2022-07-04T11:44:38;31.20;98.60
12833;DHT22;6483;51.310;4.462;2022-07-04T11:47:40;30.50;94.20
12833;DHT22;6483;51.310;4.462;2022-07-04T11:50:11;30.90;94.40
12833;DHT22;6483;51.310;4.462;2022-07-04T11:52:41;29.20;93.60
12833;DHT22;6483;51.310;4.462;2022-07-04T11:55:10;29.70;95.60
12833;DHT22;6483;51.310;4.462;2022-07-04T11:57:40;32.80;91.40
12833;DHT22;6483;51.310;4.462;2022-07-04T12:00:28;31.10;89.50
12833;DHT22;6483;51.310;4.462;2022-07-04T12:02:59;29.40;91.50
12833;DHT22;6483;51.310;4.462;2022-07-04T12:05:25;27.60;92.70
12833;DHT22;6483;51.310;4.462;2022-07-04T12:07:51;26.20;95.90
12833;DHT22;6483;51.310;4.462;2022-07-04T12:10:25;25.40;98.20
12833;DHT22;6483;51.310;4.462;2022-07-04T12:13:02;24.70;99.90
12833;DHT22;6483;51.310;4.462;2022-07-04T12:15:42;24.90;99.90
12833;DHT22;6483;51.310;4.462;2022-07-04T12:18:29;26.50;99.90
12833;DHT22;6483;51.310;4.462;2022-07-04T12:21:13;28.10;98.70
12833;DHT22;6483;51.310;4.462;2022-07-04T12:23:41;28.60;96.20
12833;DHT22;6483;51.310;4.462;2022-07-04T12:26:10;30.50;96.30
12833;DHT22;6483;51.310;4.462;2022-07-04T12:28:41;31.30;92.80
12833;DHT22;6483;51.310;4.462;2022-07-04T12:31:07;31.90;90.20
12833;DHT22;6483;51.310;4.462;2022-07-04T12:33:33;31.70;87.20
12833;DHT22;6483;51.310;4.462;2022-07-04T12:36:00;31.70;87.10
12833;DHT22;6483;51.310;4.462;2022-07-04T12:41:01;32.60;89.10
12833;DHT22;6483;51.310;4.462;2022-07-04T12:46:36;31.50;83.20
12833;DHT22;6483;51.310;4.462;2022-07-04T12:49:04;30.60;83.30
12833;DHT22;6483;51.310;4.462;2022-07-04T12:51:48;30.20;84.50
12833;DHT22;6483;51.310;4.462;2022-07-04T12:54:15;30.10;84.20
12833;DHT22;6483;51.310;4.462;2022-07-04T12:56:43;29.20;84.20
12833;DHT22;6483;51.310;4.462;2022-07-04T12:59:14;27.90;88.60
12833;DHT22;6483;51.310;4.462;2022-07-04T13:01:42;29.00;91.10
12833;DHT22;6483;51.310;4.462;2022-07-04T13:04:08;30.50;87.60
12833;DHT22;6483;51.310;4.462;2022-07-04T13:06:35;30.30;86.50
12833;DHT22;6483;51.310;4.462;2022-07-04T13:09:03;31.20;86.10
12833;DHT22;6483;51.310;4.462;2022-07-04T13:11:29;30.50;83.60
12833;DHT22;6483;51.310;4.462;2022-07-04T13:14:13;31.70;82.70
12833;DHT22;6483;51.310;4.462;2022-07-04T13:17:02;31.10;83.40
12833;DHT22;6483;51.310;4.462;2022-07-04T13:19:29;31.40;83.80
12833;DHT22;6483;51.310;4.462;2022-07-04T13:21:54;32.30;81.80
12833;DHT22;6483;51.310;4.462;2022-07-04T13:24:23;32.40;80.00
12833;DHT22;6483;51.310;4.462;2022-07-04T13:27:09;32.40;79.10
12833;DHT22;6483;51.310;4.462;2022-07-04T13:29:34;32.80;78.90
12833;DHT22;6483;51.310;4.462;2022-07-04T13:32:00;32.40;81.30
12833;DHT22;6483;51.310;4.462;2022-07-04T13:34:25;32.40;80.10
12833;DHT22;6483;51.310;4.462;2022-07-04T13:39:39;33.90;76.50
12833;DHT22;6483;51.310;4.462;2022-07-04T13:42:05;31.80;75.90
12833;DHT22;6483;51.310;4.462;2022-07-04T13:44:32;33.50;76.90
12833;DHT22;6483;51.310;4.462;2022-07-04T13:46:59;32.80;72.60
12833;DHT22;6483;51.310;4.462;2022-07-04T13:49:28;32.90;76.10
12833;DHT22;6483;51.310;4.462;2022-07-04T13:51:53;32.10;73.50
12833;DHT22;6483;51.310;4.462;2022-07-04T13:54:19;31.30;75.90
12833;DHT22;6483;51.310;4.462;2022-07-04T13:56:48;32.80;76.70
12833;DHT22;6483;51.310;4.462;2022-07-04T13:59:14;33.50;73.60
12833;DHT22;6483;51.310;4.462;2022-07-04T14:18:49;33.70;70.10
12833;DHT22;6483;51.310;4.462;2022-07-04T14:26:15;33.30;67.70
12833;DHT22;6483;51.310;4.462;2022-07-04T14:28:43;32.10;69.50
12833;DHT22;6483;51.310;4.462;2022-07-04T14:31:10;31.20;69.60
12833;DHT22;6483;51.310;4.462;2022-07-04T14:33:37;31.90;69.20
12833;DHT22;6483;51.310;4.462;2022-07-04T14:36:04;30.90;72.90
12833;DHT22;6483;51.310;4.462;2022-07-04T14:38:31;31.20;74.10
12833;DHT22;6483;51.310;4.462;2022-07-04T14:41:00;31.50;72.10
12833;DHT22;6483;51.310;4.462;2022-07-04T14:43:39;31.90;70.60
12833;DHT22;6483;51.310;4.462;2022-07-04T14:46:06;30.90;73.20
12833;DHT22;6483;51.310;4.462;2022-07-04T15:05:41;29.60;73.40
12833;DHT22;6483;51.310;4.462;2022-07-04T15:08:06;31.50;72.30
12833;DHT22;6483;51.310;4.462;2022-07-04T15:10:32;31.20;72.80
12833;DHT22;6483;51.310;4.462;2022-07-04T15:12:58;31.10;73.40
12833;DHT22;6483;51.310;4.462;2022-07-04T15:15:24;30.70;73.30
12833;DHT22;6483;51.310;4.462;2022-07-04T15:17:50;31.00;73.00
12833;DHT22;6483;51.310;4.462;2022-07-04T15:20:18;31.20;74.00
12833;DHT22;6483;51.310;4.462;2022-07-04T15:23:03;31.70;74.00
12833;DHT22;6483;51.310;4.462;2022-07-04T15:25:46;31.90;74.70
12833;DHT22;6483;51.310;4.462;2022-07-04T15:28:18;32.50;71.60
12833;DHT22;6483;51.310;4.462;2022-07-04T15:30:44;33.10;70.80
12833;DHT22;6483;51.310;4.462;2022-07-04T15:33:10;34.80;70.50
12833;DHT22;6483;51.310;4.462;2022-07-04T15:35:41;34.90;68.30
12833;DHT22;6483;51.310;4.462;2022-07-04T15:38:07;33.60;69.10
12833;DHT22;6483;51.310;4.462;2022-07-04T15:42:59;33.40;69.20
12833;DHT22;6483;51.310;4.462;2022-07-04T15:45:27;32.80;71.10
12833;DHT22;6483;51.310;4.462;2022-07-04T15:47:56;33.20;71.30
12833;DHT22;6483;51.310;4.462;2022-07-04T15:50:22;32.50;70.40
12833;DHT22;6483;51.310;4.462;2022-07-04T15:52:49;33.20;70.40
12833;DHT22;6483;51.310;4.462;2022-07-04T15:55:18;33.40;70.30
12833;DHT22;6483;51.310;4.462;2022-07-04T15:57:46;33.80;69.60
12833;DHT22;6483;51.310;4.462;2022-07-04T16:00:15;34.50;71.60
12833;DHT22;6483;51.310;4.462;2022-07-04T16:02:41;35.10;70.80
12833;DHT22;6483;51.310;4.462;2022-07-04T16:05:07;34.60;68.80
12833;DHT22;6483;51.310;4.462;2022-07-04T16:07:38;35.30;69.80
12833;DHT22;6483;51.310;4.462;2022-07-04T20:06:43;34.90;67.50
12833;DHT22;6483;51.310;4.462;2022-07-04T20:09:09;18.20;99.90
12833;DHT22;6483;51.310;4.462;2022-07-04T20:11:34;17.80;99.90
12833;DHT22;6483;51.310;4.462;2022-07-04T20:14:03;17.70;99.90
12833;DHT22;6483;51.310;4.462;2022-07-04T20:16:31;17.50;99.90
12833;DHT22;6483;51.310;4.462;2022-07-04T20:19:00;17.40;99.90
12833;DHT22;6483;51.310;4.462;2022-07-04T20:21:27;17.20;99.90
12833;DHT22;6483;51.310;4.462;2022-07-04T20:23:52;17.00;99.90
12833;DHT22;6483;51.310;4.462;2022-07-04T20:26:21;16.90;99.90
12833;DHT22;6483;51.310;4.462;2022-07-04T20:28:47;16.90;99.90
12833;DHT22;6483;51.310;4.462;2022-07-04T20:31:13;16.70;99.90
12833;DHT22;6483;51.310;4.462;2022-07-04T20:33:39;16.70;99.90
12833;DHT22;6483;51.310;4.462;2022-07-04T20:36:05;16.50;99.90
12833;DHT22;6483;51.310;4.462;2022-07-04T20:38:35;16.30;99.90
12833;DHT22;6483;51.310;4.462;2022-07-04T20:41:03;16.20;99.90
12833;DHT22;6483;51.310;4.462;2022-07-04T20:43:29;16.10;99.90
12833;DHT22;6483;51.310;4.462;2022-07-04T20:45:54;16.00;99.90
12833;DHT22;6483;51.310;4.462;2022-07-04T20:48:20;15.80;99.90
12833;DHT22;6483;51.310;4.462;2022-07-04T20:50:49;15.80;99.90
12833;DHT22;6483;51.310;4.462;2022-07-04T20:53:15;15.80;99.90
12833;DHT22;6483;51.310;4.462;2022-07-04T20:55:46;15.70;99.90
12833;DHT22;6483;51.310;4.462;2022-07-04T20:58:12;15.60;99.90
12833;DHT22;6483;51.310;4.462;2022-07-04T21:00:41;15.50;99.90
12833;DHT22;6483;51.310;4.462;2022-07-04T21:03:16;15.40;99.90
12833;DHT22;6483;51.310;4.462;2022-07-04T21:05:45;15.30;99.90